Latest Weather Observations for Murganella Airstrip

IDD60801

Issued at 10:21 am CST Monday 16 September 2019 (issued every 10 minutes, with the page automatically refreshed every 10 minutes)

About weather observations | Map of weather stations | Latest weather observations for NT | Other Formats
Station Details ID: 014309 Name: MURGANELLA AIRSTRIP Lat: -11.55 Lon: 132.93 Height: 9.5 m
Data from the previous 72 hours. | See also: Recent months at Murganella Airstrip
Date/Time
CST
Temp
°C
App
Temp
°C
Dew
Point
°C
Rel
Hum
%
Delta-T
°C
Wind Press
QNH
hPa
Press
MSL
hPa
Rain since
9am
mm
Dir  Spd
km/h
Gust
km/h
Spd
kts
Gust
kts
16/10:00am 26.2 25.9 16.4 54 6.0 ESE 13 22 7 12 1016.8 1016.7 0.0
16/09:30am 25.7 26.2 17.4 60 5.2 E 11 22 6 12 1016.7 1016.6 0.0
16/09:00am 25.3 25.5 17.7 62 4.8 ESE 13 24 7 13 1016.6 1016.5 0.0
16/08:30am 25.1 25.4 16.0 57 5.5 ESE 9 24 5 13 1016.3 1016.2 0.0
16/08:00am 23.2 23.7 17.4 70 3.6 E 11 24 6 13 1016.0 1015.9 0.0
16/07:58am 22.9 23.8 17.6 72 3.3 E 9 24 5 13 1016.0 1015.9 0.0
16/07:30am 17.9 20.5 17.6 98 0.2 CALM 0 0 0 0 1016.0 1015.9 0.0
16/07:00am 16.3 18.2 15.8 97 0.3 CALM 0 0 0 0 1015.9 1015.8 0.0
16/06:30am 16.6 18.6 16.0 96 0.4 CALM 0 0 0 0 1015.6 1015.5 0.0
16/06:00am 16.9 18.9 16.1 95 0.5 CALM 0 0 0 0 1015.4 1015.3 0.0
16/05:30am 17.7 20.1 17.1 96 0.4 CALM 0 0 0 0 1015.1 1015.0 0.0
16/05:00am 18.0 20.6 17.4 96 0.4 CALM 0 0 0 0 1014.9 1014.8 0.0
16/04:30am 18.4 21.0 17.4 94 0.6 CALM 0 0 0 0 1014.7 1014.6 0.0
16/04:00am 19.0 21.1 18.2 95 0.5 ESE 4 6 2 3 1014.6 1014.5 0.0
16/03:30am 19.8 22.3 19.1 96 0.4 ESE 4 6 2 3 1014.4 1014.3 0.0
16/03:00am 20.1 23.0 19.8 98 0.2 E 4 6 2 3 1014.3 1014.2 0.0
16/02:30am 19.4 22.3 19.1 98 0.2 ESE 2 4 1 2 1014.4 1014.3 0.0
16/02:00am 19.3 22.2 19.0 98 0.2 E 2 6 1 3 1014.4 1014.3 0.0
16/01:30am 18.0 20.5 17.2 95 0.5 CALM 0 0 0 0 1014.6 1014.5 0.0
16/01:00am 17.8 20.2 17.0 95 0.5 CALM 0 0 0 0 1014.8 1014.7 0.0
16/12:30am 18.3 20.9 17.5 95 0.5 CALM 0 0 0 0 1015.3 1015.2 0.0
16/12:00am 18.4 21.0 17.6 95 0.5 CALM 0 0 0 0 1015.2 1015.1 0.0
 
Date/Time
CST
Temp
°C
App
Temp
°C
Dew
Point
°C
Rel
Hum
%
Delta-T
°C
Wind Press
QNH
hPa
Press
MSL
hPa
Rain since
9am
mm
Dir  Spd
km/h
Gust
km/h
Spd
kts
Gust
kts
15/11:30pm 18.4 21.0 17.4 94 0.6 CALM 0 0 0 0 1015.2 1015.1 0.0
15/11:00pm 18.8 21.4 17.6 93 0.7 CALM 0 0 0 0 1015.2 1015.1 0.0
15/10:30pm 19.1 21.7 17.4 90 1.0 CALM 0 0 0 0 1015.3 1015.2 0.0
15/10:00pm 19.7 22.5 18.0 90 1.0 CALM 0 0 0 0 1015.1 1015.0 0.0
15/09:30pm 20.3 23.3 18.4 89 1.2 CALM 0 0 0 0 1015.1 1015.0 0.0
15/09:00pm 21.0 23.9 18.2 84 1.7 CALM 0 0 0 0 1015.0 1014.9 0.0
15/08:30pm 22.4 25.9 19.6 84 1.8 CALM 0 4 0 2 1014.6 1014.5 0.0
15/08:00pm 23.3 26.1 19.7 80 2.3 NE 4 7 2 4 1014.5 1014.4 0.0
15/07:30pm 23.9 26.2 19.4 76 2.9 NE 6 9 3 5 1014.2 1014.1 0.0
15/07:00pm 24.8 26.6 18.7 69 3.9 NE 7 13 4 7 1013.9 1013.8 0.0
15/06:30pm 25.9 27.0 17.0 58 5.5 ENE 7 17 4 9 1013.7 1013.6 0.0
15/06:00pm 26.9 27.1 16.8 54 6.3 E 11 20 6 11 1013.6 1013.5 0.0
15/05:30pm 27.6 27.4 16.6 51 6.8 E 13 26 7 14 1013.6 1013.5 0.0
15/05:00pm 27.7 27.0 17.3 53 6.5 E 17 28 9 15 1013.5 1013.4 0.0
15/04:30pm 28.1 27.5 17.6 53 6.6 E 17 32 9 17 1013.4 1013.3 0.0
15/04:00pm 28.5 28.3 17.7 52 6.8 E 15 30 8 16 1013.4 1013.3 0.0
15/03:30pm 28.3 27.1 17.5 52 6.8 E 20 35 11 19 1013.4 1013.3 0.0
15/03:00pm 28.6 27.5 17.2 50 7.2 E 19 33 10 18 1013.5 1013.4 0.0
15/02:30pm 29.6 29.1 17.8 49 7.5 ENE 17 32 9 17 1013.6 1013.5 0.0
15/02:00pm 28.4 27.1 17.3 51 7.0 E 20 35 11 19 1013.9 1013.8 0.0
15/01:30pm 28.8 28.3 17.0 49 7.4 E 15 26 8 14 1014.1 1014.0 0.0
15/01:00pm 27.8 26.3 16.7 50 6.9 ESE 20 30 11 16 1014.7 1014.6 0.0
15/12:30pm 27.4 25.9 16.4 51 6.8 E 19 37 10 20 1015.2 1015.1 0.0
15/12:00pm 27.4 26.1 16.7 52 6.6 E 19 33 10 18 1015.6 1015.5 0.0
15/11:30am 27.6 26.6 16.6 51 6.8 E 17 37 9 20 1015.8 1015.7 0.0
15/11:00am 27.6 26.0 15.9 49 7.2 ESE 19 28 10 15 1016.3 1016.2 0.0
15/10:30am 27.1 25.7 15.5 49 7.1 E 17 32 9 17 1016.6 1016.5 0.0
15/10:00am 26.2 24.1 14.6 48 6.9 ESE 19 33 10 18 1016.6 1016.5 0.0
15/09:30am 26.4 24.6 14.5 48 7.1 ESE 17 32 9 17 1016.6 1016.5 0.0
15/09:00am 25.1 22.4 13.0 47 7.0 ESE 19 28 10 15 1016.8 1016.7 0.0
15/08:30am 24.5 23.5 13.4 50 6.5 ESE 11 26 6 14 1016.6 1016.5 0.0
15/08:00am 21.6 21.5 12.2 55 5.3 SSE 4 9 2 5 1016.5 1016.4 0.0
15/07:30am 17.6 17.9 12.3 71 2.9 SSE 2 4 1 2 1016.4 1016.3 0.0
15/07:00am 14.1 14.3 10.5 79 1.9 CALM 0 0 0 0 1016.3 1016.2 0.0
15/06:30am 15.6 15.3 10.2 70 2.8 SE 2 4 1 2 1015.8 1015.7 0.0
15/06:00am 16.5 15.4 10.1 66 3.4 SE 6 7 3 4 1015.5 1015.4 0.0
15/05:30am 18.7 18.1 10.3 58 4.5 SE 4 7 2 4 1015.4 1015.3 0.0
15/05:00am 19.8 19.1 10.0 53 5.3 ESE 4 7 2 4 1015.2 1015.1 0.0
15/04:30am 21.5 20.4 10.0 48 6.2 ESE 6 15 3 8 1015.0 1014.9 0.0
15/04:00am 21.8 20.5 10.0 47 6.4 ESE 7 17 4 9 1014.8 1014.7 0.0
15/03:30am 22.6 21.1 10.4 46 6.7 ESE 9 20 5 11 1015.0 1014.9 0.0
15/03:00am 22.6 21.9 12.0 51 6.0 ESE 7 15 4 8 1015.1 1015.0 0.0
15/02:30am 23.0 23.0 14.3 58 5.1 ESE 7 17 4 9 1015.1 1015.0 0.0
15/02:00am 23.5 22.7 15.0 59 5.1 ESE 13 22 7 12 1015.1 1015.0 0.0
15/01:30am 23.0 24.3 17.5 71 3.4 ESE 7 13 4 7 1015.2 1015.1 0.0
15/01:00am 23.2 24.9 18.1 73 3.2 ESE 6 11 3 6 1015.3 1015.2 0.0
15/12:30am 23.6 25.0 18.7 74 3.1 E 9 17 5 9 1015.5 1015.4 0.0
15/12:00am 23.4 25.6 19.3 78 2.6 E 6 13 3 7 1015.6 1015.5 0.0
 
Date/Time
CST
Temp
°C
App
Temp
°C
Dew
Point
°C
Rel
Hum
%
Delta-T
°C
Wind Press
QNH
hPa
Press
MSL
hPa
Rain since
9am
mm
Dir  Spd
km/h
Gust
km/h
Spd
kts
Gust
kts
14/11:30pm 23.4 25.8 20.0 81 2.2 ENE 7 13 4 7 1015.6 1015.5 0.0
14/11:00pm 23.3 25.9 20.1 82 2.1 ENE 6 11 3 6 1015.7 1015.6 0.0
14/10:30pm 23.2 25.9 20.2 83 1.9 E 6 11 3 6 1015.5 1015.4 0.0
14/10:00pm 22.6 25.7 20.3 87 1.5 ENE 4 7 2 4 1015.6 1015.5 0.0
14/09:30pm 22.4 25.8 20.1 87 1.5 ENE 2 4 1 2 1015.4 1015.3 0.0
14/09:00pm 22.5 25.4 19.9 85 1.7 E 4 7 2 4 1015.2 1015.1 0.0
14/08:30pm 23.0 26.0 20.0 83 1.9 ENE 4 6 2 3 1015.0 1014.9 0.0
14/08:00pm 23.1 25.6 19.9 82 2.1 NE 6 9 3 5 1014.6 1014.5 0.0
14/07:30pm 23.6 26.3 19.5 78 2.6 ENE 4 7 2 4 1014.4 1014.3 0.0
14/07:00pm 24.1 26.2 19.4 75 3.0 NE 7 13 4 7 1014.1 1014.0 0.0
14/06:30pm 24.8 26.6 18.7 69 3.9 NE 7 15 4 8 1013.8 1013.7 0.0
14/06:00pm 25.9 26.7 18.1 62 4.9 NE 11 20 6 11 1013.5 1013.4 0.0
14/05:30pm 27.1 28.2 18.1 58 5.7 NE 9 19 5 10 1013.4 1013.3 0.0
14/05:00pm 27.5 27.3 17.7 55 6.2 NE 15 22 8 12 1013.5 1013.4 0.0
14/04:30pm 28.5 28.2 17.4 51 7.0 ENE 15 26 8 14 1013.4 1013.3 0.0
14/04:00pm 28.6 27.6 16.5 48 7.5 ENE 17 28 9 15 1013.5 1013.4 0.0
14/03:30pm 29.0 27.2 15.5 44 8.3 ENE 19 32 10 17 1013.6 1013.5 0.0
14/03:00pm 30.3 28.6 14.8 39 9.5 ENE 17 33 9 18 1013.8 1013.7 0.0
14/02:30pm 30.5 27.6 12.4 33 10.7 E 19 32 10 17 1014.0 1013.9 0.0
14/02:00pm 29.6 26.7 12.9 35 9.9 E 20 39 11 21 1014.4 1014.3 0.0
14/01:30pm 30.1 27.0 12.1 33 10.5 E 20 41 11 22 1014.8 1014.7 0.0
14/01:00pm 30.1 27.3 12.5 34 10.4 E 19 35 10 19 1015.3 1015.2 0.0
14/12:30pm 29.7 26.3 12.6 35 10.1 E 22 41 12 22 1016.0 1015.9 0.0
14/12:00pm 30.2 27.6 13.9 37 9.8 E 20 43 11 23 1016.4 1016.3 0.0
14/11:30am 29.9 26.7 11.9 33 10.5 ESE 20 44 11 24 1016.7 1016.6 0.0
14/11:00am 29.4 25.9 12.3 34 10.0 ESE 22 41 12 22 1016.9 1016.8 0.0
14/10:30am 28.8 25.4 11.4 34 10.0 E 20 33 11 18 1017.1 1017.0 0.0
14/10:00am 28.4 26.1 11.9 36 9.5 E 15 28 8 15 1017.4 1017.3 0.0
14/09:30am 27.7 25.6 11.3 36 9.4 ESE 13 24 7 13 1017.6 1017.5 0.0
14/09:00am 26.4 25.5 12.5 42 8.0 SE 9 15 5 8 1017.7 1017.6 0.0
14/08:30am 24.1 24.6 15.1 57 5.4 SE 6 11 3 6 1017.6 1017.5 0.0
14/08:00am 22.2 23.0 15.8 67 3.8 SSE 6 9 3 5 1017.4 1017.3 0.0
14/07:30am 18.5 20.1 15.9 85 1.5 SSE 2 6 1 3 1017.3 1017.2 0.0
14/07:00am 16.0 17.3 14.0 88 1.1 CALM 0 0 0 0 1017.0 1016.9 0.0
14/06:30am 17.2 18.4 13.9 81 1.9 CALM 0 2 0 1 1016.7 1016.6 0.0
14/06:00am 18.7 19.6 15.0 79 2.2 SE 4 7 2 4 1016.5 1016.4 0.0
14/05:30am 18.8 19.3 14.1 74 2.7 SE 4 6 2 3 1016.3 1016.2 0.0
14/05:00am 20.0 20.7 14.4 70 3.3 SE 4 7 2 4 1016.2 1016.1 0.0
14/04:30am 20.9 21.3 14.8 68 3.6 SE 6 11 3 6 1015.9 1015.8 0.0
14/04:00am 21.7 22.0 15.1 66 3.9 SE 7 15 4 8 1015.7 1015.6 0.0
14/03:30am 22.2 22.3 15.5 66 4.0 SE 9 17 5 9 1015.5 1015.4 0.0
14/03:00am 23.0 22.5 15.8 64 4.3 ESE 13 28 7 15 1015.7 1015.6 0.0
14/02:30am 23.1 23.1 16.2 65 4.2 ESE 11 22 6 12 1015.7 1015.6 0.0
14/02:00am 22.7 24.0 17.6 73 3.2 ESE 7 13 4 7 1015.9 1015.8 0.0
14/01:30am 23.1 24.9 18.8 77 2.7 ESE 7 15 4 8 1016.0 1015.9 0.0
14/01:00am 23.1 25.3 19.5 80 2.3 ESE 7 11 4 6 1016.2 1016.1 0.0
14/12:30am 23.3 25.6 19.9 81 2.2 ESE 7 15 4 8 1016.3 1016.2 0.0
14/12:00am 23.6 25.9 19.9 80 2.4 E 7 15 4 8 1016.4 1016.3 0.0
 
Date/Time
CST
Temp
°C
App
Temp
°C
Dew
Point
°C
Rel
Hum
%
Delta-T
°C
Wind Press
QNH
hPa
Press
MSL
hPa
Rain since
9am
mm
Dir  Spd
km/h
Gust
km/h
Spd
kts
Gust
kts
13/11:30pm 23.7 25.7 20.0 80 2.4 E 9 20 5 11 1016.4 1016.3 0.0
13/11:00pm 23.7 25.4 19.4 77 2.8 E 9 15 5 8 1016.4 1016.3 0.0
13/10:30pm 23.8 26.1 19.9 79 2.5 E 7 17 4 9 1016.4 1016.3 0.0
13/10:00pm 23.8 26.2 20.1 80 2.4 E 7 13 4 7 1016.4 1016.3 0.0
13/09:30pm 23.6 26.2 20.1 81 2.3 ENE 6 9 3 5 1016.3 1016.2 0.0
13/09:00pm 23.6 26.1 19.9 80 2.4 ENE 6 9 3 5 1015.9 1015.8 0.0
13/08:30pm 23.5 26.0 19.8 80 2.4 ENE 6 11 3 6 1015.5 1015.4 0.0
13/08:00pm 23.4 25.9 19.1 77 2.7 ENE 4 9 2 5 1015.4 1015.3 0.0
13/07:30pm 23.6 25.8 19.1 76 2.9 ENE 6 13 3 7 1015.1 1015.0 0.0
13/07:00pm 24.1 26.1 18.7 72 3.4 ENE 6 9 3 5 1014.6 1014.5 0.0
13/06:30pm 24.9 25.8 18.4 67 4.1 ENE 11 19 6 10 1014.2 1014.1 0.0
13/06:00pm 26.0 26.6 17.6 60 5.3 ENE 11 22 6 12 1013.9 1013.8 0.0
13/05:30pm 27.1 27.3 16.7 53 6.5 ENE 11 20 6 11 1013.7 1013.6 0.0
13/05:00pm 28.2 28.0 15.8 47 7.6 ENE 11 20 6 11 1013.5 1013.4 0.0
13/04:30pm 28.8 28.2 15.7 45 8.1 ENE 13 24 7 13 1013.4 1013.3 0.0
13/04:00pm 29.6 28.2 14.6 40 9.1 ENE 15 28 8 15 1013.4 1013.3 0.0
13/03:30pm 30.3 28.7 14.0 37 9.8 NE 15 32 8 17 1013.5 1013.4 0.0
13/03:00pm 30.4 28.0 13.7 36 10.0 E 19 32 10 17 1013.7 1013.6 0.0
13/02:30pm 30.9 28.6 14.1 36 10.2 ENE 19 33 10 18 1014.2 1014.1 0.0
13/02:00pm 30.2 27.5 13.5 36 10.0 E 20 33 11 18 1014.7 1014.6 0.0
13/01:30pm 30.2 27.5 13.5 36 10.0 E 20 39 11 21 1015.2 1015.1 0.0
13/01:00pm 30.1 27.3 12.5 34 10.4 ESE 19 33 10 18 1015.7 1015.6 0.0
13/12:30pm 29.9 26.5 11.4 32 10.7 E 20 39 11 21 1016.4 1016.3 0.0
13/12:00pm 30.9 28.5 11.3 30 11.3 ESE 15 28 8 15 1016.8 1016.7 0.0
13/11:30am 29.5 26.0 10.1 30 10.9 ESE 19 32 10 17 1017.2 1017.1 0.0
13/11:00am 29.0 25.4 9.7 30 10.8 ESE 19 37 10 20 1017.4 1017.3 0.0
13/10:30am 29.1 25.5 9.8 30 10.8 ESE 19 32 10 17 1017.8 1017.7 0.0

Other formats

Comma delimited format used in spreadsheet applications
http://www.bom.gov.au/fwo/IDD60801/IDD60801.94109.axf

JavaScript Object Notation format (JSON) in row-major order
http://www.bom.gov.au/fwo/IDD60801/IDD60801.94109.json

Data quality

Most of these data are generated automatically and are frequently updated. Quality checks on data are not normally performed. It is possible for incorrect values to appear. Refer to information at About Latest Weather Observations and please check the disclaimer before using these data.